Time;durP1;ratioP1;P1;durP2;ratioP2;P2;SDS_P1;SDS_P2;PMS_P1;PMS_P2;Temp;Humidity;BMP_temperature;BMP_pressure;BME280_temperature;BME280_humidity;BME280_pressure;Samples;Min_cycle;Max_cycle;Signal;HPM_P1;HPM_P2
2023/06/14 00:01:52;;;;;;;5.70;1.92;;;22.00;58.30;;;;;;6157880;23;20021;-80
2023/06/14 00:04:18;;;;;;;6.05;1.60;;;21.90;59.10;;;;;;6158778;23;20067;-80
2023/06/14 00:06:48;;;;;;;4.90;1.80;;;21.90;59.60;;;;;;6183258;23;20009;-80
2023/06/14 00:09:14;;;;;;;3.28;1.40;;;21.80;58.20;;;;;;6158488;23;20040;-79
2023/06/14 00:11:41;;;;;;;5.63;1.77;;;21.80;59.00;;;;;;6184066;23;20470;-79
2023/06/14 00:14:07;;;;;;;7.28;1.90;;;21.70;59.20;;;;;;6157361;23;20454;-80
2023/06/14 00:16:34;;;;;;;8.70;1.70;;;21.60;58.20;;;;;;6184179;23;20449;-79
2023/06/14 00:19:04;;;;;;;5.65;1.50;;;21.50;59.10;;;;;;6157693;23;20458;-80
2023/06/14 00:21:30;;;;;;;3.10;1.50;;;21.50;59.60;;;;;;6160150;23;20015;-79
2023/06/14 00:23:57;;;;;;;6.53;1.70;;;21.50;60.00;;;;;;6159533;23;20432;-80
2023/06/14 00:26:23;;;;;;;3.42;1.42;;;21.40;60.50;;;;;;6185164;23;20354;-80
2023/06/14 00:28:49;;;;;;;6.50;1.65;;;21.40;60.80;;;;;;6159691;23;20021;-80
2023/06/14 00:31:14;;;;;;;5.35;1.52;;;21.30;59.80;;;;;;6186192;23;20085;-80
2023/06/14 00:33:40;;;;;;;8.50;1.52;;;21.20;60.20;;;;;;6158609;23;20064;-80
2023/06/14 00:36:05;;;;;;;3.75;1.50;;;21.30;60.40;;;;;;6159867;23;20041;-80
2023/06/14 00:38:31;;;;;;;3.72;1.50;;;21.20;61.60;;;;;;6159593;23;20068;-80
2023/06/14 00:40:57;;;;;;;7.07;1.63;;;21.20;60.50;;;;;;6185164;23;20060;-80
2023/06/14 00:43:22;;;;;;;4.70;1.42;;;21.10;60.40;;;;;;6159458;23;20138;-79
2023/06/14 00:45:49;;;;;;;3.47;1.35;;;21.10;61.20;;;;;;6185550;23;20013;-80
2023/06/14 00:48:15;;;;;;;5.30;1.40;;;21.10;61.50;;;;;;6185369;23;20087;-80
2023/06/14 00:50:41;;;;;;;5.63;1.52;;;21.10;61.60;;;;;;6185515;23;20084;-79
2023/06/14 00:53:07;;;;;;;4.38;1.50;;;21.00;61.70;;;;;;6186357;23;20102;-79
2023/06/14 00:55:33;;;;;;;4.13;1.50;;;21.00;61.70;;;;;;6158475;23;20020;-79
2023/06/14 00:57:59;;;;;;;5.25;1.48;;;21.00;62.10;;;;;;6186426;23;20024;-79
2023/06/14 01:00:25;;;;;;;4.55;1.48;;;21.00;61.80;;;;;;6159180;23;20017;-79
2023/06/14 01:02:50;;;;;;;6.00;1.80;;;20.90;61.90;;;;;;6185099;23;20017;-80
2023/06/14 01:05:16;;;;;;;5.95;1.80;;;20.90;62.10;;;;;;6186060;23;20021;-80
2023/06/14 01:08:14;;;;;;;2.92;1.38;;;20.90;62.10;;;;;;6159293;23;20017;-79
2023/06/14 01:11:08;;;;;;;3.65;1.65;;;20.80;61.80;;;;;;6159360;23;20017;-79
2023/06/14 01:13:38;;;;;;;3.00;1.23;;;20.70;60.80;;;;;;6173830;23;20523;-79
2023/06/14 01:16:06;;;;;;;4.15;1.50;;;20.70;61.90;;;;;;6184981;23;20025;-79
2023/06/14 01:18:33;;;;;;;3.38;1.25;;;20.60;62.30;;;;;;6159268;23;20021;-79
2023/06/14 01:20:59;;;;;;;4.03;1.50;;;20.60;62.30;;;;;;6186209;23;20017;-79
2023/06/14 01:23:25;;;;;;;5.28;1.67;;;20.60;62.10;;;;;;6185304;23;20021;-79
2023/06/14 01:25:55;;;;;;;5.65;1.63;;;20.50;62.40;;;;;;6159060;23;20104;-79
2023/06/14 01:28:21;;;;;;;4.05;1.35;;;20.40;62.40;;;;;;6159521;23;20013;-79
2023/06/14 01:30:53;;;;;;;4.78;1.50;;;20.30;62.60;;;;;;6184813;23;20438;-78
2023/06/14 01:33:20;;;;;;;5.72;1.40;;;20.30;63.00;;;;;;6186186;23;20017;-79
2023/06/14 01:35:51;;;;;;;2.92;1.30;;;20.20;63.10;;;;;;6159225;23;20095;-79
2023/06/14 01:38:23;;;;;;;4.70;1.40;;;20.10;63.00;;;;;;6184911;23;20013;-79
2023/06/14 01:40:50;;;;;;;3.20;1.38;;;20.10;63.20;;;;;;6185352;23;20013;-79
2023/06/14 01:43:17;;;;;;;2.63;1.30;;;20.10;63.80;;;;;;6184912;23;20024;-79
2023/06/14 01:45:46;;;;;;;3.67;1.35;;;20.00;63.10;;;;;;6158933;23;20017;-80
2023/06/14 01:48:13;;;;;;;2.85;1.30;;;19.90;63.40;;;;;;6185938;23;20028;-79
2023/06/14 01:50:38;;;;;;;3.00;1.20;;;19.90;63.80;;;;;;6158044;23;20013;-79
2023/06/14 01:53:07;;;;;;;4.72;1.58;;;19.90;63.50;;;;;;6159109;23;20051;-79
2023/06/14 01:55:37;;;;;;;3.42;1.50;;;19.80;64.10;;;;;;6158942;23;20013;-79
2023/06/14 01:58:03;;;;;;;3.92;1.38;;;19.70;64.50;;;;;;6184361;23;20472;-79
2023/06/14 02:00:29;;;;;;;4.70;1.30;;;19.70;64.70;;;;;;6159001;23;20346;-79
2023/06/14 02:02:55;;;;;;;3.78;1.55;;;19.60;65.20;;;;;;6158848;23;20017;-80
2023/06/14 02:05:21;;;;;;;3.72;1.20;;;19.60;65.10;;;;;;6158112;23;20017;-79
2023/06/14 02:07:47;;;;;;;3.95;1.42;;;19.60;65.40;;;;;;6158660;23;20020;-79
2023/06/14 02:10:14;;;;;;;4.10;1.35;;;19.50;65.20;;;;;;6159273;23;20028;-79
2023/06/14 02:12:39;;;;;;;3.63;1.50;;;19.50;65.30;;;;;;6184044;23;20311;-79
2023/06/14 02:15:06;;;;;;;5.35;1.60;;;19.50;65.80;;;;;;6159105;23;20049;-79
2023/06/14 02:17:33;;;;;;;5.20;1.70;;;19.50;65.70;;;;;;6185137;23;20013;-79
2023/06/14 02:19:59;;;;;;;5.97;1.52;;;19.40;65.40;;;;;;6157908;23;20390;-79
2023/06/14 02:22:25;;;;;;;4.15;1.38;;;19.40;66.10;;;;;;6158903;23;20013;-79
2023/06/14 02:24:50;;;;;;;3.10;1.45;;;19.40;66.80;;;;;;6185300;23;20072;-80
2023/06/14 02:27:16;;;;;;;3.75;1.45;;;19.40;66.50;;;;;;6158201;23;20009;-79
2023/06/14 02:29:42;;;;;;;3.58;1.55;;;19.40;67.00;;;;;;6185161;23;20025;-79
2023/06/14 02:32:08;;;;;;;6.70;1.65;;;19.30;66.90;;;;;;6185320;23;20017;-79
2023/06/14 02:34:34;;;;;;;6.55;1.65;;;19.30;67.20;;;;;;6184152;23;20088;-78
2023/06/14 02:37:02;;;;;;;2.75;1.23;;;19.30;67.60;;;;;;6185594;23;20024;-79
2023/06/14 02:39:28;;;;;;;6.40;1.60;;;19.20;67.30;;;;;;6185410;23;20017;-79
2023/06/14 02:41:54;;;;;;;3.63;1.42;;;19.20;67.70;;;;;;6157385;23;20465;-80
2023/06/14 02:44:23;;;;;;;6.28;1.73;;;19.20;67.90;;;;;;6185453;23;20021;-80
2023/06/14 02:46:49;;;;;;;3.88;1.40;;;19.10;68.00;;;;;;6157291;23;20481;-79
2023/06/14 02:49:14;;;;;;;4.00;1.30;;;19.10;67.90;;;;;;6158209;23;20021;-79
2023/06/14 02:51:40;;;;;;;5.07;1.70;;;19.10;68.60;;;;;;6157973;23;20342;-80
2023/06/14 02:54:06;;;;;;;4.25;1.67;;;19.00;68.70;;;;;;6158261;23;20105;-79
2023/06/14 02:56:31;;;;;;;5.70;1.65;;;19.00;68.40;;;;;;6185483;23;20426;-80
2023/06/14 02:58:57;;;;;;;5.55;1.52;;;19.00;68.60;;;;;;6184090;23;20017;-79
2023/06/14 03:01:33;;;;;;;3.90;1.35;;;18.90;68.80;;;;;;6183663;23;20103;-79
2023/06/14 03:04:03;;;;;;;3.58;1.60;;;18.80;69.20;;;;;;6158776;23;20041;-79
2023/06/14 03:06:30;;;;;;;6.93;1.70;;;18.80;69.10;;;;;;6158225;23;20017;-79
2023/06/14 03:08:59;;;;;;;4.35;1.50;;;18.80;69.10;;;;;;6183486;23;20446;-79
2023/06/14 03:11:26;;;;;;;4.15;1.50;;;18.80;68.80;;;;;;6158685;23;20021;-79
2023/06/14 03:13:52;;;;;;;3.10;1.30;;;18.70;68.70;;;;;;6158242;23;20013;-79
2023/06/14 03:16:21;;;;;;;6.07;1.40;;;18.70;69.50;;;;;;6157458;23;20025;-79
2023/06/14 03:18:48;;;;;;;3.35;1.50;;;18.70;69.80;;;;;;6158011;23;20025;-80
2023/06/14 03:21:15;;;;;;;5.00;1.60;;;18.60;70.00;;;;;;6158683;23;20055;-79
2023/06/14 03:23:42;;;;;;;3.95;1.50;;;18.60;70.50;;;;;;6183781;23;20017;-79
2023/06/14 03:26:08;;;;;;;2.72;1.30;;;18.60;70.70;;;;;;6185140;23;20063;-80
2023/06/14 03:28:33;;;;;;;4.20;1.65;;;18.50;70.60;;;;;;6184483;23;20021;-79
2023/06/14 03:30:59;;;;;;;4.25;1.85;;;18.50;70.80;;;;;;6157617;23;20021;-79
2023/06/14 03:33:25;;;;;;;3.58;1.40;;;18.50;70.50;;;;;;6158808;23;20048;-79
2023/06/14 03:35:51;;;;;;;3.53;1.48;;;18.50;70.80;;;;;;6183644;23;20020;-79
2023/06/14 03:38:17;;;;;;;4.22;1.67;;;18.40;70.60;;;;;;6183915;23;20477;-79
2023/06/14 03:40:44;;;;;;;3.47;1.50;;;18.40;70.40;;;;;;6157540;23;20040;-79
2023/06/14 03:43:10;;;;;;;4.43;1.77;;;18.40;70.30;;;;;;6157066;23;20080;-78
2023/06/14 03:45:35;;;;;;;3.92;1.40;;;18.30;70.70;;;;;;6184493;23;20013;-79
2023/06/14 03:48:02;;;;;;;4.35;1.50;;;18.30;71.00;;;;;;6184978;23;20024;-78
2023/06/14 03:50:28;;;;;;;3.72;1.50;;;18.20;70.70;;;;;;6157679;23;20028;-79
2023/06/14 03:52:53;;;;;;;6.35;1.70;;;18.20;71.40;;;;;;6157457;23;20017;-79
2023/06/14 03:55:19;;;;;;;4.70;1.75;;;18.20;71.50;;;;;;6186045;23;20032;-79
2023/06/14 03:57:45;;;;;;;3.75;1.63;;;18.10;71.40;;;;;;6158617;23;20013;-79
2023/06/14 04:00:12;;;;;;;3.33;1.58;;;18.10;71.80;;;;;;6159662;23;20017;-78
2023/06/14 04:02:38;;;;;;;4.47;1.75;;;18.00;72.00;;;;;;6185974;23;20345;-78
2023/06/14 04:05:05;;;;;;;4.38;1.60;;;18.00;72.40;;;;;;6159530;23;20021;-78
2023/06/14 04:07:30;;;;;;;4.28;1.58;;;18.00;72.30;;;;;;6187092;23;20009;-78
2023/06/14 04:09:56;;;;;;;4.20;1.58;;;17.90;72.90;;;;;;6186755;23;20385;-78
2023/06/14 04:12:22;;;;;;;4.90;1.60;;;17.90;73.10;;;;;;6159154;23;20338;-78
2023/06/14 04:14:47;;;;;;;4.82;1.75;;;17.90;72.90;;;;;;6159898;23;20029;-78
2023/06/14 04:17:13;;;;;;;4.97;1.50;;;17.90;73.30;;;;;;6186300;23;20064;-78
2023/06/14 04:19:39;;;;;;;4.35;1.80;;;17.90;72.60;;;;;;6158748;23;20025;-78
2023/06/14 04:22:05;;;;;;;5.00;1.67;;;17.80;72.50;;;;;;6186739;23;20059;-78
2023/06/14 04:24:34;;;;;;;4.25;1.70;;;17.80;73.20;;;;;;6186823;23;20029;-78
2023/06/14 04:27:01;;;;;;;5.03;1.90;;;17.80;73.50;;;;;;6159153;23;20017;-77
2023/06/14 04:29:29;;;;;;;5.15;2.08;;;17.70;73.50;;;;;;6160040;23;20024;-78
2023/06/14 04:31:58;;;;;;;4.85;1.80;;;17.70;73.90;;;;;;6186384;23;20009;-78
2023/06/14 04:34:29;;;;;;;4.63;1.63;;;17.70;74.20;;;;;;6185622;23;20099;-78
2023/06/14 04:36:56;;;;;;;4.90;1.73;;;17.70;74.20;;;;;;6186466;23;20330;-79
2023/06/14 04:39:22;;;;;;;4.43;1.95;;;17.70;74.50;;;;;;6159094;23;20023;-78
2023/06/14 04:41:52;;;;;;;3.95;1.80;;;17.60;74.00;;;;;;6186289;23;20028;-78
2023/06/14 04:44:19;;;;;;;4.88;1.67;;;17.60;74.60;;;;;;6160294;23;20031;-77
2023/06/14 04:46:46;;;;;;;4.18;1.85;;;17.60;74.70;;;;;;6158616;23;20024;-77
2023/06/14 04:49:20;;;;;;;6.80;1.92;;;17.60;75.10;;;;;;6187575;23;20017;-77
2023/06/14 04:51:46;;;;;;;4.45;1.52;;;17.60;74.90;;;;;;6160868;23;20430;-78
2023/06/14 04:54:15;;;;;;;4.80;2.00;;;17.60;75.40;;;;;;6185408;23;20017;-78
2023/06/14 04:56:44;;;;;;;5.63;1.85;;;17.60;75.50;;;;;;6186647;23;20348;-78
2023/06/14 04:59:14;;;;;;;4.03;1.70;;;17.60;75.50;;;;;;6186926;23;20025;-77
2023/06/14 05:01:40;;;;;;;4.72;1.70;;;17.60;74.70;;;;;;6158331;23;20345;-78
2023/06/14 05:04:06;;;;;;;5.35;1.63;;;17.60;75.20;;;;;;6159920;23;20433;-78
2023/06/14 05:06:32;;;;;;;4.40;1.90;;;17.60;75.60;;;;;;6159917;23;20020;-79
2023/06/14 05:08:58;;;;;;;4.00;1.75;;;17.60;76.00;;;;;;6155881;23;20453;-79
2023/06/14 05:11:24;;;;;;;4.32;1.85;;;17.60;75.40;;;;;;6158126;23;20013;-78
2023/06/14 05:13:51;;;;;;;4.45;2.10;;;17.60;75.50;;;;;;6158777;23;20060;-79
2023/06/14 05:16:19;;;;;;;5.28;2.08;;;17.60;75.50;;;;;;6158601;23;20016;-79
2023/06/14 05:18:45;;;;;;;6.72;1.75;;;17.60;75.90;;;;;;6158708;23;20063;-79
2023/06/14 05:21:11;;;;;;;3.85;1.90;;;17.60;75.30;;;;;;6159346;23;20013;-79
2023/06/14 05:23:37;;;;;;;5.07;2.00;;;17.60;76.10;;;;;;6183651;23;20203;-79
2023/06/14 05:26:04;;;;;;;3.90;1.83;;;17.60;76.40;;;;;;6184417;23;20342;-79
2023/06/14 05:28:30;;;;;;;4.00;1.98;;;17.60;76.10;;;;;;6157224;23;20021;-79
2023/06/14 05:30:56;;;;;;;5.93;1.77;;;17.60;76.10;;;;;;6184301;23;20059;-79
2023/06/14 05:33:21;;;;;;;5.13;2.28;;;17.60;76.70;;;;;;6158227;23;20021;-78
2023/06/14 05:35:47;;;;;;;5.93;1.75;;;17.60;76.70;;;;;;6183480;23;20341;-79
2023/06/14 05:38:13;;;;;;;4.13;1.98;;;17.60;77.20;;;;;;6185503;23;20023;-79
2023/06/14 05:40:38;;;;;;;3.95;1.70;;;17.60;76.90;;;;;;6159185;23;20028;-79
2023/06/14 05:43:04;;;;;;;4.75;1.90;;;17.60;76.60;;;;;;6184210;23;20023;-78
2023/06/14 05:45:29;;;;;;;5.32;1.95;;;17.60;77.10;;;;;;6159268;23;20009;-78
2023/06/14 05:47:55;;;;;;;6.90;1.95;;;17.60;77.40;;;;;;6184091;23;20013;-79
2023/06/14 05:50:21;;;;;;;4.45;2.10;;;17.70;76.90;;;;;;6157029;23;20040;-79
2023/06/14 05:52:47;;;;;;;4.05;2.00;;;17.60;77.00;;;;;;6185583;23;20056;-79
2023/06/14 05:55:12;;;;;;;3.97;1.92;;;17.70;76.60;;;;;;6184809;23;20099;-80
2023/06/14 05:57:38;;;;;;;3.72;1.85;;;17.70;77.20;;;;;;6156213;23;20012;-79
2023/06/14 06:00:14;;;;;;;6.53;2.20;;;17.60;76.80;;;;;;6185732;23;20016;-79
2023/06/14 06:02:43;;;;;;;7.13;1.92;;;17.60;77.00;;;;;;6154816;23;20017;-80
2023/06/14 06:05:10;;;;;;;7.00;2.17;;;17.60;77.30;;;;;;6156362;23;20372;-80
2023/06/14 06:07:36;;;;;;;5.53;2.08;;;17.60;76.60;;;;;;6183356;23;20021;-80
2023/06/14 06:10:02;;;;;;;4.80;1.88;;;17.70;77.20;;;;;;6184595;23;20024;-80
2023/06/14 06:12:28;;;;;;;6.95;2.42;;;17.70;77.30;;;;;;6157263;23;20023;-81
2023/06/14 06:14:55;;;;;;;6.63;1.98;;;17.70;77.10;;;;;;6157214;23;20024;-80
2023/06/14 06:17:20;;;;;;;4.18;2.00;;;17.70;76.70;;;;;;6156651;23;20168;-81
2023/06/14 06:19:46;;;;;;;5.78;1.85;;;17.80;76.90;;;;;;6156401;23;20573;-81
2023/06/14 06:22:11;;;;;;;3.58;1.80;;;17.80;76.90;;;;;;6158112;23;20092;-79
2023/06/14 06:24:37;;;;;;;5.80;2.00;;;17.80;76.80;;;;;;6156199;23;20028;-79
2023/06/14 06:27:03;;;;;;;5.72;2.20;;;17.90;77.20;;;;;;6158521;23;20341;-80
2023/06/14 06:29:29;;;;;;;4.85;1.98;;;18.00;77.20;;;;;;6157799;23;20056;-80
2023/06/14 06:31:56;;;;;;;5.65;2.10;;;18.00;76.70;;;;;;6157192;23;20023;-79
2023/06/14 06:34:21;;;;;;;7.00;1.88;;;18.10;76.70;;;;;;6184956;23;20028;-79
2023/06/14 06:36:47;;;;;;;5.07;1.83;;;18.20;77.40;;;;;;6158099;23;20013;-80
2023/06/14 06:39:14;;;;;;;4.95;1.98;;;18.30;77.40;;;;;;6157365;23;20013;-80
2023/06/14 06:41:40;;;;;;;4.50;1.92;;;18.40;77.40;;;;;;6157890;23;20024;-80
2023/06/14 06:44:08;;;;;;;4.15;1.80;;;18.50;77.30;;;;;;6184268;23;20017;-80
2023/06/14 06:46:34;;;;;;;4.13;1.80;;;18.60;77.00;;;;;;6183071;23;20017;-80
2023/06/14 06:49:00;;;;;;;5.88;1.92;;;18.60;76.70;;;;;;6157283;23;20013;-80
2023/06/14 06:51:26;;;;;;;4.25;1.85;;;18.70;76.80;;;;;;6184621;23;20020;-79
2023/06/14 06:53:53;;;;;;;4.90;1.98;;;18.80;76.80;;;;;;6182390;23;20012;-80
2023/06/14 06:56:19;;;;;;;5.18;1.65;;;18.90;76.50;;;;;;6157746;23;20013;-80
2023/06/14 06:58:45;;;;;;;5.40;2.10;;;19.00;76.50;;;;;;6156895;23;20017;-80
2023/06/14 07:01:11;;;;;;;3.25;1.65;;;19.10;76.10;;;;;;6157082;23;20044;-80
2023/06/14 07:03:37;;;;;;;4.30;1.77;;;19.20;76.20;;;;;;6183103;23;20067;-81
2023/06/14 07:06:03;;;;;;;5.18;1.98;;;19.30;75.90;;;;;;6157592;23;20099;-81
2023/06/14 07:08:29;;;;;;;5.13;1.88;;;19.50;75.90;;;;;;6156802;23;20017;-80
2023/06/14 07:10:55;;;;;;;5.97;1.73;;;19.60;75.70;;;;;;6183338;23;20016;-81
2023/06/14 07:13:20;;;;;;;5.72;1.98;;;19.70;75.10;;;;;;6156705;23;20019;-81
2023/06/14 07:15:46;;;;;;;7.90;2.00;;;19.80;74.60;;;;;;6155493;23;20354;-82
2023/06/14 07:18:12;;;;;;;5.30;1.80;;;19.90;74.30;;;;;;6156847;23;20393;-81
2023/06/14 07:20:38;;;;;;;4.20;1.92;;;20.00;73.40;;;;;;6156974;23;20056;-82
2023/06/14 07:23:05;;;;;;;3.08;1.70;;;20.10;73.50;;;;;;6183807;23;20063;-81
2023/06/14 07:25:31;;;;;;;8.20;1.83;;;20.20;73.60;;;;;;6158373;23;20013;-81
2023/06/14 07:27:56;;;;;;;5.05;1.70;;;20.30;74.20;;;;;;6184182;23;20020;-81
2023/06/14 07:30:25;;;;;;;4.22;1.67;;;20.40;73.00;;;;;;6160257;23;20119;-82
2023/06/14 07:32:52;;;;;;;4.32;1.70;;;20.50;73.20;;;;;;6159317;23;20017;-80
2023/06/14 07:35:18;;;;;;;3.22;1.60;;;20.60;72.60;;;;;;6186037;23;20021;-81
2023/06/14 07:37:43;;;;;;;4.65;1.85;;;20.70;72.60;;;;;;6185405;23;20013;-80
2023/06/14 07:40:10;;;;;;;6.35;1.80;;;20.80;71.90;;;;;;6186273;23;20020;-82
2023/06/14 07:42:36;;;;;;;3.45;1.50;;;20.90;71.80;;;;;;6158781;23;20013;-82
2023/06/14 07:45:02;;;;;;;7.43;1.85;;;21.10;71.90;;;;;;6186222;23;20319;-80
2023/06/14 07:47:28;;;;;;;7.65;1.70;;;21.10;71.30;;;;;;6159913;23;20017;-80
2023/06/14 07:49:54;;;;;;;5.43;1.83;;;21.20;70.50;;;;;;6157831;23;20104;-81
2023/06/14 07:52:20;;;;;;;4.45;1.70;;;21.30;70.20;;;;;;6159506;23;20322;-81
2023/06/14 07:54:45;;;;;;;6.45;1.73;;;21.40;70.50;;;;;;6159102;23;20457;-81
2023/06/14 07:57:11;;;;;;;5.05;1.90;;;21.50;70.40;;;;;;6158660;23;20021;-81
2023/06/14 07:59:36;;;;;;;8.50;2.33;;;21.60;70.30;;;;;;6159252;23;20017;-82
2023/06/14 08:02:02;;;;;;;4.57;1.80;;;21.80;69.70;;;;;;6159401;23;20017;-81
2023/06/14 08:04:28;;;;;;;5.72;2.00;;;21.80;69.70;;;;;;6159115;23;20017;-82
2023/06/14 08:06:53;;;;;;;4.15;1.58;;;22.00;68.80;;;;;;6186622;23;20393;-82
2023/06/14 08:09:19;;;;;;;7.32;1.85;;;22.10;68.00;;;;;;6186695;23;20013;-81
2023/06/14 08:11:44;;;;;;;5.30;1.58;;;22.10;67.70;;;;;;6185022;23;20016;-81
2023/06/14 08:14:11;;;;;;;5.07;1.70;;;22.20;67.90;;;;;;6159899;23;20017;-80
2023/06/14 08:16:37;;;;;;;5.07;1.70;;;22.20;66.90;;;;;;6186239;23;20009;-80
2023/06/14 08:19:02;;;;;;;4.82;1.60;;;22.30;67.00;;;;;;6185206;23;20464;-81
2023/06/14 08:21:29;;;;;;;3.78;1.55;;;22.40;66.80;;;;;;6186705;23;20037;-80
2023/06/14 08:23:55;;;;;;;3.72;1.80;;;22.50;67.30;;;;;;6186026;23;20045;-80
2023/06/14 08:26:21;;;;;;;6.40;1.60;;;22.60;67.30;;;;;;6159261;23;20013;-81
2023/06/14 08:28:47;;;;;;;4.60;1.73;;;22.70;67.30;;;;;;6159310;23;20013;-80
2023/06/14 08:31:13;;;;;;;3.63;1.60;;;22.70;66.00;;;;;;6185576;23;20087;-80
2023/06/14 08:33:42;;;;;;;4.28;1.70;;;22.80;66.70;;;;;;6185923;23;20021;-80
2023/06/14 08:36:08;;;;;;;4.63;1.60;;;22.90;66.80;;;;;;6159942;23;20092;-81
2023/06/14 08:38:34;;;;;;;3.67;1.50;;;23.00;65.10;;;;;;6185265;23;20057;-79
2023/06/14 08:41:01;;;;;;;4.97;1.60;;;23.00;65.70;;;;;;6159409;23;20017;-80
2023/06/14 08:43:27;;;;;;;4.55;1.60;;;23.20;66.20;;;;;;6159333;23;20021;-80
2023/06/14 08:46:02;;;;;;;3.97;1.60;;;23.20;66.30;;;;;;6158608;23;20845;-81
2023/06/14 08:48:27;;;;;;;4.60;1.88;;;23.30;66.10;;;;;;6159663;23;20021;-81
2023/06/14 08:51:01;;;;;;;3.90;1.85;;;23.40;64.10;;;;;;6158863;23;20028;-80
2023/06/14 08:53:28;;;;;;;3.45;1.70;;;23.50;64.70;;;;;;6185067;23;20464;-81
2023/06/14 08:55:55;;;;;;;3.60;1.80;;;23.60;63.80;;;;;;6185417;23;20028;-80
2023/06/14 08:58:24;;;;;;;4.70;1.70;;;23.60;63.30;;;;;;6185985;23;20437;-80
2023/06/14 09:00:52;;;;;;;4.78;1.52;;;23.70;63.50;;;;;;6157937;23;20047;-79
2023/06/14 09:03:20;;;;;;;5.25;1.80;;;23.80;63.00;;;;;;6186343;23;20037;-80
2023/06/14 09:05:46;;;;;;;4.93;1.90;;;23.80;62.90;;;;;;6159024;23;20437;-80
2023/06/14 09:08:12;;;;;;;5.03;1.55;;;23.90;61.90;;;;;;6185246;23;20326;-81
2023/06/14 09:10:40;;;;;;;5.28;1.70;;;24.00;61.90;;;;;;6184989;23;20092;-80
2023/06/14 09:13:06;;;;;;;4.18;1.80;;;24.10;63.20;;;;;;6186418;23;20017;-79
2023/06/14 09:15:32;;;;;;;4.30;1.65;;;24.10;62.00;;;;;;6184841;23;20342;-81
2023/06/14 09:18:00;;;;;;;7.85;1.80;;;24.20;62.40;;;;;;6159136;23;20021;-81
2023/06/14 09:20:26;;;;;;;4.57;1.80;;;24.20;63.10;;;;;;6185557;23;20055;-81
2023/06/14 09:22:53;;;;;;;3.72;1.50;;;24.30;62.10;;;;;;6185801;23;20017;-80
2023/06/14 09:25:18;;;;;;;3.30;1.60;;;24.40;62.50;;;;;;6185850;23;20068;-80
2023/06/14 09:27:47;;;;;;;3.83;1.63;;;24.50;62.60;;;;;;6158011;23;20025;-81
2023/06/14 09:30:13;;;;;;;3.22;1.40;;;24.50;61.50;;;;;;6185363;23;20437;-81
2023/06/14 09:32:42;;;;;;;5.05;1.65;;;24.60;61.20;;;;;;6159004;23;20019;-81
2023/06/14 09:35:09;;;;;;;4.18;1.60;;;24.70;59.60;;;;;;6157968;23;20017;-81
2023/06/14 09:37:35;;;;;;;4.75;1.58;;;24.70;59.30;;;;;;6185546;23;20020;-81
2023/06/14 09:40:02;;;;;;;4.30;1.50;;;24.80;59.10;;;;;;6185955;23;20096;-81
2023/06/14 09:42:29;;;;;;;3.67;1.40;;;24.90;60.20;;;;;;6158660;23;20024;-81
2023/06/14 09:44:56;;;;;;;3.65;1.20;;;24.90;60.80;;;;;;6158276;23;20017;-80
2023/06/14 09:47:24;;;;;;;5.05;1.67;;;25.00;61.90;;;;;;6157894;23;20048;-84
2023/06/14 09:49:50;;;;;;;10.05;2.33;;;25.10;61.60;;;;;;6156607;23;20405;-82
2023/06/14 09:52:19;;;;;;;9.23;2.10;;;25.20;61.80;;;;;;6184590;23;20484;-81
2023/06/14 09:54:47;;;;;;;13.40;2.83;;;25.30;61.40;;;;;;6158374;23;20017;-83
2023/06/14 09:57:21;;;;;;;18.65;3.00;;;25.40;61.20;;;;;;6184697;23;20009;-83
2023/06/14 09:59:47;;;;;;;13.82;2.33;;;25.40;60.80;;;;;;6157889;23;20017;-82
2023/06/14 10:02:39;;;;;;;9.80;2.72;;;25.50;60.90;;;;;;6185077;23;20017;-84
2023/06/14 10:05:06;;;;;;;11.82;2.33;;;25.60;59.00;;;;;;6185211;23;20016;-82
2023/06/14 10:07:41;;;;;;;13.40;2.72;;;25.60;59.60;;;;;;6184664;23;20021;-83
2023/06/14 10:10:07;;;;;;;10.30;2.22;;;25.70;60.10;;;;;;6157070;23;20489;-83
2023/06/14 10:12:33;;;;;;;12.23;2.33;;;25.70;59.90;;;;;;6184976;23;20013;-83
2023/06/14 10:15:01;;;;;;;10.65;2.17;;;25.80;58.90;;;;;;6158209;23;20505;-82
2023/06/14 10:17:56;;;;;;;7.43;1.80;;;25.80;58.80;;;;;;6157762;23;20021;-83
2023/06/14 10:20:39;;;;;;;6.93;1.73;;;25.90;56.10;;;;;;6158433;23;20107;-89
2023/06/14 10:23:13;;;;;;;7.97;1.95;;;25.90;56.10;;;;;;6184907;23;20013;-83
2023/06/14 10:25:39;;;;;;;6.72;1.88;;;25.90;57.20;;;;;;6157292;23;20013;-82
2023/06/14 10:28:16;;;;;;;7.93;1.70;;;26.00;57.90;;;;;;6158740;23;20103;-83
2023/06/14 10:31:12;;;;;;;6.45;1.80;;;26.00;58.00;;;;;;6194752;23;20017;-83
2023/06/14 10:33:56;;;;;;;4.30;1.40;;;26.00;57.90;;;;;;6164916;23;20025;-82
2023/06/14 10:36:22;;;;;;;3.95;1.40;;;26.10;58.80;;;;;;6158524;23;20072;-83
2023/06/14 10:39:16;;;;;;;4.43;1.30;;;26.20;58.80;;;;;;6156111;23;20029;-83
2023/06/14 10:41:52;;;;;;;3.90;1.42;;;26.20;56.70;;;;;;6158054;23;20013;-81
2023/06/14 10:44:32;;;;;;;4.30;1.50;;;26.30;57.20;;;;;;6157193;23;20013;-84
2023/06/14 10:47:02;;;;;;;4.53;1.30;;;26.30;57.00;;;;;;6157471;23;20031;-82
2023/06/14 10:49:41;;;;;;;4.03;1.42;;;26.30;57.20;;;;;;6157658;23;20045;-83
2023/06/14 10:52:18;;;;;;;3.28;1.20;;;26.40;57.00;;;;;;6157464;23;20017;-81
2023/06/14 10:55:03;;;;;;;4.95;1.35;;;26.50;56.00;;;;;;6182940;23;20017;-83
2023/06/14 10:57:31;;;;;;;6.63;1.55;;;26.60;54.70;;;;;;6157120;23;20059;-82
2023/06/14 11:00:00;;;;;;;3.80;1.10;;;26.60;55.50;;;;;;6156440;23;20492;-83
2023/06/14 11:03:10;;;;;;;5.05;1.40;;;26.70;55.50;;;;;;6157744;23;20017;-82
2023/06/14 11:05:53;;;;;;;4.28;1.23;;;26.70;55.80;;;;;;6183744;23;20017;-83
2023/06/14 11:08:45;;;;;;;3.40;1.10;;;26.70;55.50;;;;;;6157086;23;20025;-82
2023/06/14 11:11:13;;;;;;;4.22;1.02;;;26.70;56.60;;;;;;6158467;23;20017;-82
2023/06/14 11:13:45;;;;;;;4.45;1.35;;;26.80;55.50;;;;;;6156611;23;20024;-81
2023/06/14 11:16:15;;;;;;;2.92;1.20;;;26.80;54.80;;;;;;6184107;23;20045;-83
2023/06/14 11:18:42;;;;;;;2.70;1.20;;;27.00;54.80;;;;;;6157111;23;20025;-83
2023/06/14 11:21:08;;;;;;;4.10;1.17;;;27.10;56.30;;;;;;6156883;23;20013;-83
2023/06/14 11:23:34;;;;;;;4.03;1.20;;;27.10;54.30;;;;;;6184588;23;20021;-83
2023/06/14 11:26:00;;;;;;;4.45;1.38;;;27.20;55.80;;;;;;6157965;23;20021;-83
2023/06/14 11:28:38;;;;;;;4.28;1.10;;;27.20;54.60;;;;;;6183908;23;20027;-83
2023/06/14 11:31:04;;;;;;;3.50;1.05;;;27.30;53.30;;;;;;6184599;23;20017;-82
2023/06/14 11:33:30;;;;;;;3.97;1.35;;;27.30;54.00;;;;;;6158411;23;20028;-83
2023/06/14 11:35:56;;;;;;;3.38;1.17;;;27.30;52.10;;;;;;6182878;23;20014;-84
2023/06/14 11:38:21;;;;;;;3.63;1.10;;;27.40;54.50;;;;;;6184005;23;20020;-83
2023/06/14 11:40:47;;;;;;;3.45;1.20;;;27.50;54.80;;;;;;6184121;23;20028;-82
2023/06/14 11:43:14;;;;;;;2.92;1.02;;;27.50;54.80;;;;;;6156632;23;20501;-82
2023/06/14 11:45:39;;;;;;;3.63;1.20;;;27.60;55.40;;;;;;6157229;23;20445;-82
2023/06/14 11:48:06;;;;;;;4.07;1.10;;;27.60;55.20;;;;;;6157764;23;20014;-83
2023/06/14 11:50:33;;;;;;;2.78;1.10;;;27.60;54.50;;;;;;6157988;23;20052;-83
2023/06/14 11:53:07;;;;;;;5.03;1.30;;;27.70;54.80;;;;;;6157565;23;20024;-82
2023/06/14 11:55:37;;;;;;;2.50;1.00;;;27.70;54.90;;;;;;6183678;23;20013;-82
2023/06/14 11:58:04;;;;;;;5.40;1.40;;;27.80;54.90;;;;;;6156778;23;20059;-83
2023/06/14 12:00:30;;;;;;;3.10;1.15;;;27.80;53.70;;;;;;6157771;23;20476;-83
2023/06/14 12:02:57;;;;;;;3.55;0.95;;;27.90;54.10;;;;;;6156526;23;20009;-83
2023/06/14 12:05:24;;;;;;;3.60;1.20;;;27.90;54.10;;;;;;6184301;23;20017;-82
2023/06/14 12:07:53;;;;;;;4.43;1.25;;;28.00;54.80;;;;;;6183632;23;20013;-83
2023/06/14 12:10:19;;;;;;;4.95;1.58;;;28.00;52.80;;;;;;6183376;23;20465;-82
2023/06/14 12:12:45;;;;;;;3.00;1.17;;;28.10;51.30;;;;;;6157437;23;20017;-83
2023/06/14 12:15:11;;;;;;;4.40;1.52;;;28.10;52.30;;;;;;6157928;23;20017;-83
2023/06/14 12:17:41;;;;;;;5.03;1.25;;;28.10;53.60;;;;;;6157911;23;20017;-82
2023/06/14 12:20:11;;;;;;;2.45;1.20;;;28.10;54.00;;;;;;6159470;23;20025;-84
2023/06/14 12:22:37;;;;;;;2.50;1.10;;;28.20;54.40;;;;;;6185937;23;20024;-84
2023/06/14 12:25:04;;;;;;;3.13;1.23;;;28.20;54.10;;;;;;6185568;23;20052;-82
2023/06/14 12:27:30;;;;;;;3.88;1.40;;;28.20;54.20;;;;;;6185349;23;20017;-82
2023/06/14 12:30:03;;;;;;;2.97;1.40;;;28.30;52.70;;;;;;6185741;23;20100;-83
2023/06/14 12:32:29;;;;;;;2.95;1.10;;;28.20;53.20;;;;;;6158718;23;20024;-83
2023/06/14 12:34:55;;;;;;;3.75;1.20;;;28.30;53.50;;;;;;6158947;23;20048;-83
2023/06/14 12:37:21;;;;;;;4.32;1.30;;;28.30;55.10;;;;;;6184958;23;20028;-83
2023/06/14 12:39:47;;;;;;;5.47;1.42;;;28.30;54.30;;;;;;6185477;23;20017;-82
2023/06/14 12:42:14;;;;;;;2.10;1.08;;;28.40;52.60;;;;;;6159652;23;20453;-81
2023/06/14 12:44:40;;;;;;;3.28;1.27;;;28.40;53.80;;;;;;6184698;23;20055;-83
2023/06/14 12:47:07;;;;;;;2.55;1.02;;;28.40;53.50;;;;;;6159426;23;20017;-84
2023/06/14 12:49:33;;;;;;;3.58;1.48;;;28.50;53.30;;;;;;6184872;23;20017;-83